createdAt,value
2022-11-15T00:00:11.712Z,4.20
2022-11-15T00:01:17.351Z,4.75
2022-11-15T00:02:18.779Z,5.28
2022-11-15T00:03:23.720Z,5.90
2022-11-15T00:04:25.203Z,6.72
2022-11-15T00:05:26.700Z,4.63
2022-11-15T00:06:28.153Z,6.10
2022-11-15T00:07:54.133Z,4.93
2022-11-15T00:08:51.078Z,9.02
2022-11-15T00:09:52.471Z,5.38
2022-11-15T00:10:57.679Z,6.80
2022-11-15T00:11:59.111Z,5.30
2022-11-15T00:13:00.520Z,4.70
2022-11-15T00:14:01.966Z,7.68
2022-11-15T00:15:03.788Z,5.63
2022-11-15T00:16:05.960Z,5.25
2022-11-15T00:17:07.433Z,5.95
2022-11-15T00:18:13.570Z,5.72
2022-11-15T00:19:16.296Z,7.40
2022-11-15T00:20:18.263Z,7.30
2022-11-15T00:21:19.694Z,6.15
2022-11-15T00:22:21.162Z,7.13
2022-11-15T00:23:23.147Z,8.48
2022-11-15T00:24:24.552Z,6.97
2022-11-15T00:25:26.152Z,6.72
2022-11-15T00:26:27.586Z,6.82
2022-11-15T00:27:29.033Z,6.55
2022-11-15T00:28:31.006Z,6.05
2022-11-15T00:29:32.471Z,6.82
2022-11-15T00:30:33.875Z,7.15
2022-11-15T00:31:35.265Z,7.45
2022-11-15T00:32:36.664Z,6.40
2022-11-15T00:33:38.124Z,6.40
2022-11-15T00:34:40.909Z,9.00
2022-11-15T00:35:42.330Z,7.50
2022-11-15T00:36:43.755Z,8.18
2022-11-15T00:37:45.198Z,7.85
2022-11-15T00:38:46.697Z,8.07
2022-11-15T00:39:48.155Z,9.77
2022-11-15T00:40:49.590Z,7.13
2022-11-15T00:41:50.996Z,6.43
2022-11-15T00:42:52.441Z,8.25
2022-11-15T00:43:53.880Z,9.68
2022-11-15T00:44:55.316Z,11.27
2022-11-15T00:45:56.848Z,8.70
2022-11-15T00:46:58.478Z,9.60
2022-11-15T00:47:59.930Z,8.13
2022-11-15T00:49:01.317Z,7.32
2022-11-15T00:50:04.825Z,9.32
2022-11-15T00:51:06.473Z,7.70
2022-11-15T00:52:07.967Z,9.60
2022-11-15T00:53:09.514Z,9.75
2022-11-15T00:54:10.935Z,9.02
2022-11-15T00:55:15.047Z,9.93
2022-11-15T00:56:16.484Z,9.63
2022-11-15T00:57:17.887Z,9.55
2022-11-15T00:58:19.663Z,8.85
2022-11-15T00:59:21.112Z,7.70
2022-11-15T01:00:22.828Z,7.78
2022-11-15T01:01:24.407Z,8.52
2022-11-15T01:02:25.874Z,8.18
2022-11-15T01:03:27.299Z,9.80
2022-11-15T01:04:28.758Z,12.85
2022-11-15T01:05:31.528Z,11.15
2022-11-15T01:06:32.979Z,11.27
2022-11-15T01:07:34.496Z,9.50
2022-11-15T01:08:36.086Z,11.15
2022-11-15T01:09:37.557Z,7.35
2022-11-15T01:10:39.053Z,8.60
2022-11-15T01:11:40.474Z,10.75
2022-11-15T01:12:41.882Z,8.20
2022-11-15T01:13:43.330Z,9.30
2022-11-15T01:14:44.808Z,9.50
2022-11-15T01:15:46.251Z,9.93
2022-11-15T01:16:47.679Z,12.07
2022-11-15T01:17:49.091Z,9.73
2022-11-15T01:18:51.516Z,8.65
2022-11-15T01:19:52.954Z,10.90
2022-11-15T01:20:55.714Z,8.20
2022-11-15T01:21:57.138Z,9.65
2022-11-15T01:22:58.547Z,10.65
2022-11-15T01:23:59.978Z,8.02
2022-11-15T01:25:01.428Z,8.63
2022-11-15T01:26:03.992Z,7.38
2022-11-15T01:27:05.439Z,9.68
2022-11-15T01:28:06.889Z,8.13
2022-11-15T01:29:08.349Z,7.30
2022-11-15T01:30:10.285Z,8.75
2022-11-15T01:31:19.639Z,9.18
2022-11-15T01:32:21.095Z,11.07
2022-11-15T01:33:22.521Z,8.75
2022-11-15T01:34:23.958Z,8.95
2022-11-15T01:35:25.565Z,9.73
2022-11-15T01:36:28.341Z,9.93
2022-11-15T01:37:29.786Z,9.77
2022-11-15T01:38:31.220Z,7.72
2022-11-15T01:39:33.729Z,8.30
2022-11-15T01:40:35.284Z,11.57
2022-11-15T01:41:36.733Z,7.85
2022-11-15T01:42:38.203Z,9.98
2022-11-15T01:43:40.401Z,11.23
2022-11-15T01:44:44.803Z,8.70
2022-11-15T01:45:49.484Z,9.50
2022-11-15T01:46:50.973Z,9.60
2022-11-15T01:47:54.439Z,9.23
2022-11-15T01:48:59.317Z,12.75
2022-11-15T01:50:04.644Z,10.10
2022-11-15T01:51:09.897Z,12.50
2022-11-15T01:52:15.956Z,14.20
2022-11-15T01:53:20.113Z,13.68
2022-11-15T01:54:24.037Z,10.27
2022-11-15T01:55:28.701Z,13.27
2022-11-15T01:56:33.230Z,10.93
2022-11-15T01:57:35.316Z,12.68
2022-11-15T01:58:37.702Z,11.40
2022-11-15T01:59:43.994Z,12.35
2022-11-15T02:00:45.596Z,12.00
2022-11-15T02:01:47.759Z,12.65
2022-11-15T02:02:49.202Z,12.13
2022-11-15T02:03:56.269Z,14.15
2022-11-15T02:04:57.850Z,11.20
2022-11-15T02:05:59.999Z,10.20
2022-11-15T02:07:04.268Z,9.38
2022-11-15T02:08:07.754Z,12.82
2022-11-15T02:09:09.379Z,8.98
2022-11-15T02:10:13.681Z,10.70
2022-11-15T02:11:15.164Z,9.18
2022-11-15T02:12:21.476Z,8.40
2022-11-15T02:13:23.572Z,9.77
2022-11-15T02:14:28.309Z,10.02
2022-11-15T02:15:38.477Z,8.60
2022-11-15T02:16:45.951Z,8.75
2022-11-15T02:18:11.015Z,11.20
2022-11-15T02:19:30.263Z,7.10
2022-11-15T02:20:56.184Z,11.20
2022-11-15T02:22:11.815Z,9.48
2022-11-15T02:23:39.703Z,9.90
2022-11-15T02:25:02.136Z,8.00
2022-11-15T02:26:31.785Z,9.05
2022-11-15T02:28:07.229Z,8.15
2022-11-15T02:29:11.672Z,9.57
2022-11-15T02:30:28.535Z,9.27
2022-11-15T02:31:39.172Z,10.85
2022-11-15T02:32:48.952Z,7.93
2022-11-15T02:34:01.162Z,9.27
2022-11-15T02:35:09.112Z,8.32
2022-11-15T02:36:15.985Z,10.00
2022-11-15T02:37:27.045Z,8.02
2022-11-15T02:38:38.730Z,10.90
2022-11-15T02:39:47.489Z,8.98
2022-11-15T02:40:55.020Z,10.60
2022-11-15T02:42:03.098Z,9.73
2022-11-15T02:43:09.753Z,7.97
2022-11-15T02:44:18.505Z,9.93
2022-11-15T02:45:27.833Z,9.43
2022-11-15T02:46:35.729Z,8.00
2022-11-15T02:47:44.360Z,9.57
2022-11-15T02:48:46.374Z,8.50
2022-11-15T02:49:50.972Z,9.23
2022-11-15T02:50:53.182Z,9.10
2022-11-15T02:51:56.700Z,9.93
2022-11-15T02:52:58.329Z,9.68
2022-11-15T02:53:59.731Z,9.70
2022-11-15T02:55:02.345Z,9.60
2022-11-15T02:56:04.365Z,8.85
2022-11-15T02:57:13.266Z,10.07
2022-11-15T02:58:38.555Z,8.90
2022-11-15T02:59:59.990Z,9.82
2022-11-15T03:01:09.396Z,8.88
2022-11-15T03:02:21.317Z,8.70
2022-11-15T03:03:43.321Z,10.13
2022-11-15T03:04:51.311Z,10.52
2022-11-15T03:05:59.871Z,9.02
2022-11-15T03:07:07.806Z,10.52
2022-11-15T03:08:15.030Z,9.63
2022-11-15T03:09:28.520Z,11.25
2022-11-15T03:10:38.235Z,9.48
2022-11-15T03:11:48.219Z,11.50
2022-11-15T03:12:56.276Z,9.52
2022-11-15T03:14:01.147Z,11.18
2022-11-15T03:15:07.438Z,9.52
2022-11-15T03:16:16.580Z,11.70
2022-11-15T03:17:24.709Z,12.13
2022-11-15T03:18:32.843Z,11.27
2022-11-15T03:19:41.412Z,9.35
2022-11-15T03:20:43.740Z,11.48
2022-11-15T03:21:47.535Z,10.38
2022-11-15T03:22:51.273Z,10.25
2022-11-15T03:23:55.281Z,10.20
2022-11-15T03:25:01.745Z,9.85
2022-11-15T03:26:08.185Z,11.10
2022-11-15T03:27:13.628Z,10.82
2022-11-15T03:28:22.947Z,11.15
2022-11-15T03:29:28.852Z,10.80
2022-11-15T03:30:33.894Z,9.60
2022-11-15T03:31:50.043Z,14.70
2022-11-15T03:32:55.773Z,10.52
2022-11-15T03:33:59.901Z,11.13
2022-11-15T03:35:03.966Z,10.38
2022-11-15T03:36:06.094Z,10.90
2022-11-15T03:37:09.288Z,11.52
2022-11-15T03:38:18.019Z,9.18
2022-11-15T03:39:21.792Z,11.30
2022-11-15T03:40:30.342Z,11.15
2022-11-15T03:41:40.423Z,11.48
2022-11-15T03:42:47.724Z,11.18
2022-11-15T03:43:56.493Z,10.45
2022-11-15T03:45:03.381Z,10.75
2022-11-15T03:46:09.157Z,8.18
2022-11-15T03:47:16.579Z,9.13
2022-11-15T03:48:22.574Z,9.60
2022-11-15T03:49:29.731Z,8.88
2022-11-15T03:50:31.365Z,10.30
2022-11-15T03:51:33.048Z,8.23
2022-11-15T03:52:35.386Z,9.35
2022-11-15T03:53:36.881Z,9.23
2022-11-15T03:54:49.154Z,10.63
2022-11-15T03:55:50.663Z,11.63
2022-11-15T03:56:52.157Z,10.98
2022-11-15T03:57:57.195Z,14.18
2022-11-15T03:58:58.695Z,12.68
2022-11-15T04:00:00.116Z,12.65
2022-11-15T04:01:01.640Z,13.75
2022-11-15T04:02:03.081Z,13.63
2022-11-15T04:03:05.815Z,14.82
2022-11-15T04:04:07.222Z,13.90
2022-11-15T04:05:09.102Z,14.57
2022-11-15T04:06:10.538Z,15.80
2022-11-15T04:07:12.353Z,16.77
2022-11-15T04:08:14.083Z,16.30
2022-11-15T04:09:15.528Z,13.23
2022-11-15T04:10:17.224Z,14.70
2022-11-15T04:11:18.661Z,15.35
2022-11-15T04:12:20.066Z,18.45
2022-11-15T04:13:21.469Z,15.02
2022-11-15T04:14:22.932Z,12.35
2022-11-15T04:15:25.111Z,10.80
2022-11-15T04:16:26.627Z,11.63
2022-11-15T04:17:28.058Z,9.63
2022-11-15T04:18:30.825Z,9.77
2022-11-15T04:19:32.236Z,8.82
2022-11-15T04:20:33.711Z,9.57
2022-11-15T04:21:35.182Z,10.55
2022-11-15T04:22:36.635Z,9.77
2022-11-15T04:23:38.069Z,10.63
2022-11-15T04:24:39.515Z,10.27
2022-11-15T04:25:42.390Z,13.70
2022-11-15T04:26:43.833Z,11.57
2022-11-15T04:27:45.278Z,11.57
2022-11-15T04:28:46.775Z,11.50
2022-11-15T04:29:48.210Z,13.20
2022-11-15T04:30:49.983Z,14.85
2022-11-15T04:31:51.445Z,12.27
2022-11-15T04:32:52.883Z,13.70
2022-11-15T04:33:56.683Z,14.75
2022-11-15T04:34:58.116Z,14.27
2022-11-15T04:35:59.563Z,16.65
2022-11-15T04:37:00.982Z,15.38
2022-11-15T04:38:04.949Z,14.10
2022-11-15T04:39:06.445Z,12.45
2022-11-15T04:40:09.216Z,15.05
2022-11-15T04:41:10.651Z,14.77
2022-11-15T04:42:12.208Z,16.23
2022-11-15T04:43:13.606Z,19.77
2022-11-15T04:44:15.050Z,15.48
2022-11-15T04:45:16.657Z,15.77
2022-11-15T04:46:18.383Z,15.88
2022-11-15T04:47:19.810Z,15.48
2022-11-15T04:48:21.318Z,10.35
2022-11-15T04:49:24.144Z,10.77
2022-11-15T04:50:25.600Z,11.02
2022-11-15T04:51:27.167Z,9.80
2022-11-15T04:52:28.597Z,11.10
2022-11-15T04:53:30.326Z,12.13
2022-11-15T04:54:32.025Z,10.00
2022-11-15T04:55:33.569Z,12.05
2022-11-15T04:56:35.050Z,10.40
2022-11-15T04:57:36.641Z,8.65
2022-11-15T04:58:38.692Z,11.82
2022-11-15T04:59:40.185Z,11.70
2022-11-15T05:00:41.657Z,11.23
2022-11-15T05:01:45.011Z,10.43
2022-11-15T05:02:46.820Z,12.73
2022-11-15T05:03:48.315Z,12.60
2022-11-15T05:04:51.085Z,12.88
2022-11-15T05:05:52.523Z,10.80
2022-11-15T05:06:54.059Z,14.50
2022-11-15T05:07:55.559Z,13.48
2022-11-15T05:08:57.377Z,12.73
2022-11-15T05:09:58.837Z,14.57
2022-11-15T05:11:00.299Z,17.17
2022-11-15T05:12:01.743Z,23.40
2022-11-15T05:13:03.168Z,21.75
2022-11-15T05:14:04.604Z,19.23
2022-11-15T05:15:07.250Z,19.02
2022-11-15T05:16:08.670Z,17.40
2022-11-15T05:17:10.068Z,21.48
2022-11-15T05:18:11.695Z,22.98
2022-11-15T05:19:13.344Z,17.20
2022-11-15T05:20:16.297Z,19.02
2022-11-15T05:21:18.309Z,22.95
2022-11-15T05:22:20.159Z,24.60
2022-11-15T05:23:21.645Z,26.35
2022-11-15T05:24:23.068Z,26.73
2022-11-15T05:25:25.148Z,29.05
2022-11-15T05:26:26.835Z,27.27
2022-11-15T05:27:28.277Z,27.27
2022-11-15T05:28:29.935Z,24.95
2022-11-15T05:29:31.431Z,38.63
2022-11-15T05:30:32.878Z,31.98
2022-11-15T05:31:34.330Z,37.15
2022-11-15T05:32:35.771Z,44.63
2022-11-15T05:33:39.402Z,27.27
2022-11-15T05:34:41.138Z,27.42
2022-11-15T05:35:49.832Z,30.73
2022-11-15T05:36:51.460Z,27.90
2022-11-15T05:37:52.903Z,28.88
2022-11-15T05:38:54.768Z,31.63
2022-11-15T05:39:56.162Z,26.83
2022-11-15T05:40:57.842Z,27.35
2022-11-15T05:42:05.209Z,27.88
2022-11-15T05:43:06.980Z,33.38
2022-11-15T05:44:11.243Z,29.58
2022-11-15T05:45:12.786Z,26.90
2022-11-15T05:46:14.707Z,28.80
2022-11-15T05:47:20.494Z,28.70
2022-11-15T05:48:21.969Z,30.50
2022-11-15T05:49:28.086Z,29.98
2022-11-15T05:50:29.532Z,27.10
2022-11-15T05:51:32.414Z,28.15
2022-11-15T05:52:37.960Z,29.92
2022-11-15T05:53:39.450Z,29.70
2022-11-15T05:54:41.702Z,34.88
2022-11-15T05:55:43.347Z,30.77
2022-11-15T05:56:44.942Z,30.58
2022-11-15T05:57:46.432Z,26.67
2022-11-15T05:58:48.074Z,29.73
2022-11-15T05:59:49.569Z,29.08
2022-11-15T06:00:51.204Z,28.35
2022-11-15T06:01:52.695Z,24.75
2022-11-15T06:02:54.198Z,27.98
2022-11-15T06:03:55.694Z,26.77
2022-11-15T06:04:57.196Z,25.40
2022-11-15T06:05:58.762Z,31.25
2022-11-15T06:07:01.572Z,28.70
2022-11-15T06:08:03.294Z,29.50
2022-11-15T06:09:04.732Z,31.08
2022-11-15T06:10:07.443Z,29.45
2022-11-15T06:11:08.893Z,31.35
2022-11-15T06:12:10.414Z,34.05
2022-11-15T06:13:11.903Z,27.13
2022-11-15T06:14:13.339Z,28.70
2022-11-15T06:15:14.892Z,27.52
2022-11-15T06:16:16.295Z,27.98
2022-11-15T06:17:17.728Z,25.58
2022-11-15T06:18:19.157Z,25.17
2022-11-15T06:19:20.589Z,28.55
2022-11-15T06:20:22.012Z,28.40
2022-11-15T06:21:23.837Z,26.83
2022-11-15T06:22:26.603Z,30.63
2022-11-15T06:23:28.982Z,32.25
2022-11-15T06:24:30.599Z,30.67
2022-11-15T06:25:32.484Z,29.65
2022-11-15T06:26:33.966Z,30.67
2022-11-15T06:27:35.468Z,32.17
2022-11-15T06:28:36.887Z,30.95
2022-11-15T06:29:38.392Z,28.67
2022-11-15T06:30:39.958Z,30.65
2022-11-15T06:31:41.457Z,33.70
2022-11-15T06:32:42.915Z,29.02
2022-11-15T06:33:44.351Z,30.27
2022-11-15T06:34:45.778Z,31.77
2022-11-15T06:35:47.222Z,33.60
2022-11-15T06:36:48.680Z,34.05
2022-11-15T06:37:51.469Z,34.22
2022-11-15T06:38:52.928Z,33.92
2022-11-15T06:39:54.375Z,30.98
2022-11-15T06:40:55.831Z,31.17
2022-11-15T06:41:57.260Z,27.88
2022-11-15T06:42:59.610Z,27.17
2022-11-15T06:44:01.158Z,28.45
2022-11-15T06:45:03.420Z,26.52
2022-11-15T06:46:06.379Z,24.95
2022-11-15T06:47:07.820Z,28.50
2022-11-15T06:48:09.258Z,33.28
2022-11-15T06:49:10.699Z,31.77
2022-11-15T06:50:12.127Z,29.20
2022-11-15T06:51:13.554Z,28.05
2022-11-15T06:52:15.196Z,32.53
2022-11-15T06:53:18.001Z,27.05
2022-11-15T06:54:19.416Z,32.50
2022-11-15T06:55:21.085Z,31.58
2022-11-15T06:56:22.508Z,27.85
2022-11-15T06:57:23.936Z,27.50
2022-11-15T06:58:25.401Z,32.38
2022-11-15T06:59:26.803Z,30.33
2022-11-15T07:00:28.522Z,29.42
2022-11-15T07:01:30.079Z,33.63
2022-11-15T07:02:31.798Z,33.22
2022-11-15T07:03:36.211Z,29.23
2022-11-15T07:04:37.633Z,27.75
2022-11-15T07:05:39.092Z,27.73
2022-11-15T07:06:40.506Z,26.95
2022-11-15T07:07:42.047Z,27.88
2022-11-15T07:08:44.807Z,26.83
2022-11-15T07:09:46.207Z,28.52
2022-11-15T07:10:47.714Z,26.23
2022-11-15T07:11:49.188Z,25.13
2022-11-15T07:12:51.072Z,21.23
2022-11-15T07:13:52.479Z,20.27
2022-11-15T07:14:53.944Z,19.55
2022-11-15T07:15:55.660Z,21.70
2022-11-15T07:16:57.109Z,20.77
2022-11-15T07:18:01.520Z,21.17
2022-11-15T07:19:02.938Z,26.17
2022-11-15T07:20:05.435Z,28.05
2022-11-15T07:21:08.551Z,26.50
2022-11-15T07:22:09.984Z,24.77
2022-11-15T07:23:11.460Z,23.92
2022-11-15T07:24:14.249Z,21.30
2022-11-15T07:25:15.857Z,22.63
2022-11-15T07:26:17.480Z,24.02
2022-11-15T07:27:19.226Z,23.98
2022-11-15T07:28:20.730Z,23.13
2022-11-15T07:29:22.157Z,25.30
2022-11-15T07:30:24.028Z,23.50
2022-11-15T07:31:25.455Z,25.40
2022-11-15T07:32:27.052Z,25.73
2022-11-15T07:33:28.694Z,25.02
2022-11-15T07:34:30.335Z,28.15
2022-11-15T07:35:31.794Z,23.23
2022-11-15T07:36:33.230Z,22.17
2022-11-15T07:37:34.656Z,25.58
2022-11-15T07:38:42.172Z,21.88
2022-11-15T07:39:45.522Z,18.23
2022-11-15T07:40:47.780Z,23.42
2022-11-15T07:41:49.195Z,24.95
2022-11-15T07:42:50.646Z,21.73
2022-11-15T07:43:52.523Z,23.98
2022-11-15T07:44:54.023Z,21.50
2022-11-15T07:45:59.155Z,24.80
2022-11-15T07:47:01.105Z,22.90
2022-11-15T07:48:02.700Z,24.35
2022-11-15T07:49:04.818Z,23.20
2022-11-15T07:50:06.888Z,20.80
2022-11-15T07:51:13.993Z,22.02
2022-11-15T07:52:16.052Z,22.35
2022-11-15T07:53:17.528Z,20.48
2022-11-15T07:54:18.989Z,22.10
2022-11-15T07:55:21.836Z,19.48
2022-11-15T07:56:23.276Z,20.58
2022-11-15T07:57:24.711Z,19.85
2022-11-15T07:58:26.180Z,19.83
2022-11-15T07:59:27.596Z,22.02
2022-11-15T08:00:29.200Z,20.58
2022-11-15T08:01:30.673Z,22.63
2022-11-15T08:02:32.551Z,21.48
2022-11-15T08:03:34.723Z,20.65
2022-11-15T08:04:36.398Z,26.02
2022-11-15T08:05:39.574Z,22.20
2022-11-15T08:06:41.104Z,23.95
2022-11-15T08:07:42.653Z,24.55
2022-11-15T08:08:44.087Z,23.70
2022-11-15T08:09:45.517Z,25.77
2022-11-15T08:10:48.331Z,23.20
2022-11-15T08:11:49.734Z,26.02
2022-11-15T08:12:58.053Z,26.73
2022-11-15T08:13:59.833Z,28.42
2022-11-15T08:15:01.390Z,27.60
2022-11-15T08:16:04.030Z,26.08
2022-11-15T08:17:05.452Z,21.48
2022-11-15T08:18:11.160Z,19.48
2022-11-15T08:19:12.607Z,17.83
2022-11-15T08:20:14.661Z,19.90
2022-11-15T08:21:19.837Z,19.58
2022-11-15T08:22:21.306Z,20.60
2022-11-15T08:23:22.767Z,23.58
2022-11-15T08:24:24.281Z,24.23
2022-11-15T08:25:26.622Z,22.20
2022-11-15T08:26:29.517Z,21.17
2022-11-15T08:27:31.226Z,21.05
2022-11-15T08:28:33.390Z,21.27
2022-11-15T08:29:34.834Z,25.33
2022-11-15T08:30:39.066Z,19.98
2022-11-15T08:31:40.612Z,21.40
2022-11-15T08:32:42.042Z,19.95
2022-11-15T08:33:44.272Z,18.90
2022-11-15T08:34:45.690Z,18.60
2022-11-15T08:35:47.236Z,21.05
2022-11-15T08:36:48.728Z,20.67
2022-11-15T08:37:50.180Z,21.70
2022-11-15T08:38:51.623Z,20.55
2022-11-15T08:39:53.103Z,21.85
2022-11-15T08:41:02.174Z,20.65
2022-11-15T08:42:05.043Z,20.48
2022-11-15T08:43:06.672Z,19.92
2022-11-15T08:44:08.104Z,20.55
2022-11-15T08:45:10.559Z,18.15
2022-11-15T08:46:13.879Z,17.83
2022-11-15T08:47:15.323Z,17.35
2022-11-15T08:48:16.760Z,19.73
2022-11-15T08:49:18.210Z,16.63
2022-11-15T08:50:19.642Z,18.17
2022-11-15T08:51:21.139Z,19.23
2022-11-15T08:52:22.634Z,19.98
2022-11-15T08:53:24.083Z,18.70
2022-11-15T08:54:25.507Z,20.85
2022-11-15T08:55:26.953Z,16.42
2022-11-15T08:56:28.414Z,18.05
2022-11-15T08:57:31.369Z,19.83
2022-11-15T08:58:33.127Z,20.98
2022-11-15T08:59:34.752Z,17.67
2022-11-15T09:00:36.307Z,17.48
2022-11-15T09:01:37.818Z,18.35
2022-11-15T09:02:39.539Z,16.13
2022-11-15T09:03:41.409Z,16.30
2022-11-15T09:04:43.670Z,15.93
2022-11-15T09:05:45.104Z,16.67
2022-11-15T09:06:46.589Z,17.55
2022-11-15T09:07:48.275Z,16.73
2022-11-15T09:08:49.695Z,18.08
2022-11-15T09:09:51.090Z,17.77
2022-11-15T09:10:52.632Z,16.30
2022-11-15T09:11:58.052Z,20.38
2022-11-15T09:13:03.875Z,20.23
2022-11-15T09:14:05.364Z,16.27
2022-11-15T09:15:07.904Z,19.98
2022-11-15T09:16:09.317Z,23.17
2022-11-15T09:17:11.083Z,18.50
2022-11-15T09:18:12.571Z,19.80
2022-11-15T09:19:14.010Z,20.17
2022-11-15T09:20:16.329Z,20.63
2022-11-15T09:21:17.727Z,18.63
2022-11-15T09:22:19.292Z,19.50
2022-11-15T09:23:20.736Z,18.70
2022-11-15T09:24:22.173Z,18.95
2022-11-15T09:25:23.638Z,20.05
2022-11-15T09:26:25.573Z,17.75
2022-11-15T09:27:28.362Z,18.33
2022-11-15T09:28:31.833Z,19.02
2022-11-15T09:29:33.583Z,19.85
2022-11-15T09:30:35.244Z,17.60
2022-11-15T09:31:37.095Z,20.65
2022-11-15T09:32:39.526Z,19.15
2022-11-15T09:33:41.084Z,21.70
2022-11-15T09:34:42.545Z,21.60
2022-11-15T09:35:43.960Z,20.85
2022-11-15T09:36:45.455Z,19.48
2022-11-15T09:37:47.020Z,19.08
2022-11-15T09:38:49.196Z,21.42
2022-11-15T09:39:50.694Z,22.02
2022-11-15T09:41:09.055Z,22.25
2022-11-15T09:42:24.987Z,19.08
2022-11-15T09:43:39.019Z,23.05
2022-11-15T09:44:53.604Z,20.35
2022-11-15T09:46:06.313Z,17.95
2022-11-15T09:47:35.730Z,16.48
2022-11-15T09:48:50.775Z,20.33
2022-11-15T09:49:56.707Z,18.15
2022-11-15T09:50:59.508Z,21.45
2022-11-15T09:52:01.440Z,18.88
2022-11-15T09:53:03.121Z,23.63
2022-11-15T09:55:40.915Z,19.65
2022-11-15T09:56:44.850Z,18.58
2022-11-15T09:57:53.997Z,19.02
2022-11-15T09:59:09.468Z,17.92
2022-11-15T10:00:48.206Z,17.90
2022-11-15T10:01:45.832Z,15.52
2022-11-15T10:03:05.350Z,20.20
2022-11-15T10:04:10.809Z,18.30
2022-11-15T10:05:21.579Z,17.15
2022-11-15T10:06:26.006Z,19.40
2022-11-15T10:07:32.224Z,19.05
2022-11-15T10:08:54.424Z,18.55
2022-11-15T10:10:02.371Z,19.70
2022-11-15T10:11:36.762Z,16.98
2022-11-15T10:12:30.203Z,15.90
2022-11-15T10:13:34.321Z,18.52
2022-11-15T10:14:37.563Z,17.38
2022-11-15T10:15:39.080Z,16.33
2022-11-15T10:17:07.293Z,14.82
2022-11-15T10:18:15.091Z,15.77
2022-11-15T10:19:26.684Z,14.98
2022-11-15T10:20:29.970Z,15.45
2022-11-15T10:21:51.970Z,18.17
2022-11-15T10:22:56.656Z,16.90
2022-11-15T10:23:59.417Z,16.45
2022-11-15T10:25:13.816Z,15.68
2022-11-15T10:26:17.412Z,14.15
2022-11-15T10:27:20.248Z,13.50
2022-11-15T10:28:26.730Z,16.50
2022-11-15T10:29:28.144Z,13.18
2022-11-15T10:30:36.587Z,14.15
2022-11-15T10:31:42.045Z,15.63
2022-11-15T10:32:45.409Z,15.10
2022-11-15T10:33:46.875Z,13.48
2022-11-15T10:34:49.549Z,14.52
2022-11-15T10:36:16.340Z,11.77
2022-11-15T10:37:29.428Z,15.48
2022-11-15T10:38:31.059Z,12.93
2022-11-15T10:39:32.783Z,16.10
2022-11-15T10:40:34.963Z,15.55
2022-11-15T10:41:39.169Z,16.25
2022-11-15T10:42:40.628Z,12.77
2022-11-15T10:43:42.542Z,13.98
2022-11-15T10:44:45.252Z,15.40
2022-11-15T10:45:48.272Z,15.20
2022-11-15T10:47:05.883Z,16.10
2022-11-15T10:48:24.803Z,15.18
2022-11-15T10:49:28.432Z,15.30
2022-11-15T10:50:31.786Z,18.42
2022-11-15T10:51:40.990Z,12.60
2022-11-15T10:52:47.311Z,14.70
2022-11-15T10:53:49.865Z,14.88
2022-11-15T10:54:56.010Z,17.48
2022-11-15T10:56:01.496Z,16.48
2022-11-15T10:57:08.671Z,13.48
2022-11-15T10:58:24.168Z,13.23
2022-11-15T10:59:29.115Z,14.95
2022-11-15T11:00:35.337Z,14.82
2022-11-15T11:01:47.222Z,15.30
2022-11-15T11:02:59.054Z,18.20
2022-11-15T11:04:02.320Z,15.27
2022-11-15T11:05:06.834Z,15.02
2022-11-15T11:06:11.481Z,12.18
2022-11-15T11:07:23.135Z,14.38
2022-11-15T11:08:25.660Z,11.35
2022-11-15T11:09:33.941Z,14.18
2022-11-15T11:10:52.393Z,12.82
2022-11-15T11:11:56.270Z,14.57
2022-11-15T11:13:13.884Z,12.82
2022-11-15T11:14:22.112Z,12.80
2022-11-15T11:15:28.136Z,12.73
2022-11-15T11:16:44.422Z,13.70
2022-11-15T11:18:02.617Z,12.32
2022-11-15T11:19:15.756Z,12.02
2022-11-15T11:20:26.276Z,11.90
2022-11-15T11:21:40.128Z,13.90
2022-11-15T11:22:55.918Z,11.50
2022-11-15T11:24:05.964Z,10.93
2022-11-15T11:25:27.877Z,10.13
2022-11-15T11:26:41.641Z,10.77
2022-11-15T11:28:00.242Z,11.02
2022-11-15T11:29:13.908Z,8.32
2022-11-15T11:30:19.954Z,10.98
2022-11-15T11:31:28.466Z,9.10
2022-11-15T11:32:54.813Z,9.55
2022-11-15T11:34:10.616Z,11.40
2022-11-15T11:35:15.240Z,10.63
2022-11-15T11:36:26.234Z,10.30
2022-11-15T11:37:40.350Z,10.55
2022-11-15T11:38:52.878Z,9.18
2022-11-15T11:40:19.773Z,8.30
2022-11-15T11:41:47.619Z,10.02
2022-11-15T11:42:56.535Z,10.20
2022-11-15T11:44:15.956Z,9.23
2022-11-15T11:45:27.637Z,5.70
2022-11-15T11:46:47.786Z,7.88
2022-11-15T11:47:58.503Z,6.53
2022-11-15T11:49:05.188Z,6.90
2022-11-15T11:50:14.060Z,7.95
2022-11-15T11:51:21.688Z,9.30
2022-11-15T11:52:28.886Z,9.63
2022-11-15T11:53:38.628Z,2.72
2022-11-15T11:54:48.848Z,3.67
2022-11-15T11:55:53.768Z,4.55
2022-11-15T11:56:55.888Z,5.18
2022-11-15T11:58:06.146Z,6.60
2022-11-15T11:59:17.368Z,5.38
2022-11-15T12:00:21.475Z,7.55
2022-11-15T12:01:25.446Z,7.95
2022-11-15T12:02:31.502Z,7.97
2022-11-15T12:03:40.789Z,6.30
2022-11-15T12:04:47.428Z,6.30
2022-11-15T12:05:54.320Z,7.45
2022-11-15T12:07:00.916Z,7.35
2022-11-15T12:08:10.152Z,7.88
2022-11-15T12:09:18.334Z,6.65
2022-11-15T12:10:24.708Z,5.80
2022-11-15T12:11:31.471Z,6.55
2022-11-15T12:12:39.240Z,9.68
2022-11-15T12:13:42.976Z,6.63
2022-11-15T12:14:47.818Z,6.68
2022-11-15T12:15:58.915Z,7.15
2022-11-15T12:17:00.836Z,12.55
2022-11-15T12:18:02.372Z,9.88
2022-11-15T12:19:05.342Z,7.57
2022-11-15T12:20:17.016Z,7.43
2022-11-15T12:21:28.763Z,7.88
2022-11-15T12:22:39.773Z,12.65
2022-11-15T12:23:46.783Z,12.60
2022-11-15T12:24:55.136Z,17.13
2022-11-15T12:26:01.203Z,18.25
2022-11-15T12:27:08.316Z,17.85
2022-11-15T12:28:18.653Z,18.83
2022-11-15T12:29:27.069Z,18.45
2022-11-15T12:30:41.360Z,16.60
2022-11-15T12:31:48.521Z,18.80
2022-11-15T12:32:52.952Z,15.82
2022-11-15T12:33:57.248Z,16.83
2022-11-15T12:35:01.889Z,16.67
2022-11-15T12:36:05.486Z,18.45
2022-11-15T12:37:51.902Z,14.63
2022-11-15T12:38:58.534Z,14.68
2022-11-15T12:40:25.890Z,16.60
2022-11-15T12:41:28.651Z,20.42
2022-11-15T12:42:41.383Z,18.30
2022-11-15T12:43:44.397Z,18.30
2022-11-15T12:44:59.146Z,20.63
2022-11-15T12:46:05.159Z,17.48
2022-11-15T12:47:24.414Z,18.48
2022-11-15T12:48:59.909Z,17.15
2022-11-15T12:50:03.012Z,16.50
2022-11-15T12:51:04.803Z,20.67
2022-11-15T12:52:08.941Z,16.50
2022-11-15T12:53:30.900Z,15.27
2022-11-15T12:54:55.601Z,23.55
2022-11-15T12:56:18.666Z,21.92
2022-11-15T12:57:30.212Z,22.88
2022-11-15T12:59:50.236Z,24.10
2022-11-15T13:00:51.673Z,24.98
2022-11-15T13:01:58.584Z,27.35
2022-11-15T13:03:24.826Z,25.25
2022-11-15T13:04:29.908Z,30.90
2022-11-15T13:05:56.740Z,27.80
2022-11-15T13:07:00.230Z,30.02
2022-11-15T13:08:01.852Z,26.48
2022-11-15T13:09:03.617Z,28.05
2022-11-15T13:10:30.629Z,32.85
2022-11-15T13:11:49.609Z,33.47
2022-11-15T13:12:54.234Z,31.17
2022-11-15T13:13:55.696Z,28.30
2022-11-15T13:14:58.802Z,30.65
2022-11-15T13:16:00.618Z,31.67
2022-11-15T13:17:02.997Z,27.80
2022-11-15T13:18:28.361Z,31.20
2022-11-15T13:19:29.832Z,32.67
2022-11-15T13:20:32.852Z,32.78
2022-11-15T13:21:48.794Z,28.63
2022-11-15T13:22:51.888Z,30.40
2022-11-15T13:23:55.314Z,28.58
2022-11-15T13:24:58.159Z,29.17
2022-11-15T13:26:14.022Z,32.63
2022-11-15T13:27:18.972Z,29.52
2022-11-15T13:28:26.216Z,28.65
2022-11-15T13:29:27.680Z,28.48
2022-11-15T13:30:31.834Z,30.48
2022-11-15T13:31:37.705Z,31.38
2022-11-15T13:32:39.340Z,29.05
2022-11-15T13:33:41.170Z,31.52
2022-11-15T13:34:51.388Z,31.60
2022-11-15T13:35:55.982Z,28.33
2022-11-15T13:36:58.762Z,25.52
2022-11-15T13:38:05.130Z,26.13
2022-11-15T13:39:24.182Z,25.27
2022-11-15T13:40:28.117Z,24.33
2022-11-15T13:41:31.539Z,20.38
2022-11-15T13:42:33.010Z,23.77
2022-11-15T13:43:36.565Z,22.08
2022-11-15T13:44:38.012Z,19.17
2022-11-15T13:45:39.429Z,17.25
2022-11-15T13:46:40.874Z,19.75
2022-11-15T13:47:42.292Z,21.30
2022-11-15T13:48:45.874Z,23.80
2022-11-15T13:49:47.768Z,18.23
2022-11-15T13:50:49.260Z,17.88
2022-11-15T13:51:53.092Z,19.95
2022-11-15T13:52:59.897Z,17.88
2022-11-15T13:54:06.934Z,19.73
2022-11-15T13:55:14.453Z,18.77
2022-11-15T13:56:17.661Z,18.30
2022-11-15T13:57:23.307Z,18.88
2022-11-15T13:58:25.114Z,19.63
2022-11-15T13:59:28.308Z,22.48
2022-11-15T14:00:35.276Z,18.58
2022-11-15T14:01:37.451Z,18.00
2022-11-15T14:02:39.443Z,18.75
2022-11-15T14:03:48.223Z,20.27
2022-11-15T14:04:52.920Z,18.88